Accueil
METAR-TAF:

METAR-TAF

Aéroports :

Aéroport de Béziers-Cap d'Agde

Béziers, France

latitude: 43-19N, longitude: 003-21E, altitude: 17 m

Observation

Le bulletin a été fait il y a 32 minutes, à 22:30 UTC
Vent 12 kt de ouest
Température 23°C
Humidité 61%
Pression 1019 hPa
Visibilité 10 km ou plus
pas de nuages en-dessous de 1500 mètres et pas de cumulonimbus.

METAR: LFMU 172230Z AUTO 28012KT CAVOK 23/15 Q1019

Heure: 01:02 (23:02 UTC)

Prévision

Le bulletin a été fait il y a 9 heures et 2 minutes, à 14:00 UTC
Prévision valable du 17 à 15 UTC au 18 à 15 UTC
Vent 12 kt de nord/nord-ouest
Visibilité 10 km ou plus
pas de nuages en-dessous de 1500 mètres et pas de cumulonimbus.
Temporairement
du 18 à 00 UTC au 18 à 10 UTC
Vent 20 kt de ouest avec des rafales jusqu'à 30 kt

TAF: LFMU 171400Z 1715/1815 33012KT CAVOK TEMPO 1800/1810 28020G30KT

Observations et prévisions météorologiques de plus de 4000 aéroports (messages METAR et TAF).

Les stations disponibles sont représentées par des disques jaunes et rouges sur la carte.

Passer la souris dessus pour voir le nom de la station.

Cliquer dessus pour voir les observations et prévisions météorologiques.

Pour changer de carte: cliquez sur les boutons verts avec une croix noire pour zoomer, sur le bouton vert avec un tiret pour effectuer un zoom arrière, ou sur les flèches vertes pour les cartes adjacentes.


METAR-TAF: